createdAt,value
2023-02-06T00:01:37.667Z,6.13
2023-02-06T00:05:39.930Z,5.40
2023-02-06T00:09:42.175Z,6.10
2023-02-06T00:13:45.070Z,5.50
2023-02-06T00:17:47.237Z,5.87
2023-02-06T00:21:49.372Z,6.50
2023-02-06T00:25:51.589Z,5.77
2023-02-06T00:29:53.768Z,5.80
2023-02-06T00:33:55.946Z,6.17
2023-02-06T00:37:58.106Z,6.70
2023-02-06T00:42:01.625Z,6.20
2023-02-06T00:46:04.238Z,6.77
2023-02-06T00:50:06.696Z,5.47
2023-02-06T00:54:09.539Z,5.67
2023-02-06T00:58:11.745Z,5.43
2023-02-06T01:02:14.162Z,5.93
2023-02-06T01:06:16.295Z,5.43
2023-02-06T01:10:18.606Z,5.83
2023-02-06T01:14:20.826Z,6.00
2023-02-06T01:18:22.990Z,5.77
2023-02-06T01:22:25.268Z,5.57
2023-02-06T01:26:27.426Z,6.37
2023-02-06T01:30:29.706Z,5.10
2023-02-06T01:34:31.943Z,5.67
2023-02-06T01:38:35.802Z,6.03
2023-02-06T01:42:38.903Z,6.10
2023-02-06T01:46:43.861Z,5.60
2023-02-06T01:50:48.580Z,5.13
2023-02-06T01:54:57.492Z,5.40
2023-02-06T01:59:01.884Z,4.87
2023-02-06T02:03:04.606Z,5.23
2023-02-06T02:07:18.286Z,5.77
2023-02-06T02:11:29.324Z,5.47
2023-02-06T02:15:38.854Z,5.87
2023-02-06T02:19:50.098Z,5.93
2023-02-06T02:23:52.298Z,5.67
2023-02-06T02:28:13.234Z,5.27
2023-02-06T02:32:33.713Z,5.30
2023-02-06T02:36:42.501Z,5.80
2023-02-06T02:40:44.885Z,5.50
2023-02-06T02:44:53.636Z,5.33
2023-02-06T02:48:57.752Z,6.07
2023-02-06T02:53:01.286Z,5.50
2023-02-06T02:57:06.520Z,5.20
2023-02-06T03:01:10.732Z,5.30
2023-02-06T03:05:15.006Z,5.33
2023-02-06T03:09:39.330Z,5.53
2023-02-06T03:13:59.845Z,4.83
2023-02-06T03:18:08.616Z,5.03
2023-02-06T03:22:11.002Z,5.47
2023-02-06T03:26:15.319Z,5.10
2023-02-06T03:30:18.212Z,5.63
2023-02-06T03:34:32.194Z,4.97
2023-02-06T03:38:34.409Z,4.90
2023-02-06T03:42:39.861Z,4.63
2023-02-06T03:46:42.867Z,4.83
2023-02-06T03:50:47.307Z,5.10
2023-02-06T03:54:51.245Z,4.67
2023-02-06T03:58:53.408Z,4.40
2023-02-06T04:02:56.217Z,4.07
2023-02-06T04:06:59.292Z,4.07
2023-02-06T04:11:01.479Z,4.57
2023-02-06T04:15:03.718Z,4.27
2023-02-06T04:19:06.000Z,3.63
2023-02-06T04:23:08.906Z,4.00
2023-02-06T04:27:12.639Z,3.77
2023-02-06T04:31:14.895Z,4.27
2023-02-06T04:35:17.131Z,3.87
2023-02-06T04:39:19.273Z,3.50
2023-02-06T04:43:21.378Z,4.00
2023-02-06T04:47:23.564Z,3.97
2023-02-06T04:51:25.698Z,4.57
2023-02-06T04:55:27.896Z,4.73
2023-02-06T04:59:30.257Z,2.97
2023-02-06T05:03:32.452Z,3.00
2023-02-06T05:07:35.210Z,3.40
2023-02-06T05:11:37.447Z,3.20
2023-02-06T05:15:39.888Z,2.97
2023-02-06T05:19:42.096Z,3.10
2023-02-06T05:23:44.440Z,3.37
2023-02-06T05:27:46.628Z,2.83
2023-02-06T05:31:48.784Z,3.50
2023-02-06T05:35:50.960Z,3.37
2023-02-06T05:39:53.105Z,3.50
2023-02-06T05:43:55.210Z,3.53
2023-02-06T05:47:57.453Z,3.37
2023-02-06T05:51:59.570Z,3.03
2023-02-06T05:56:01.704Z,3.47
2023-02-06T06:00:05.390Z,3.87
2023-02-06T06:04:13.733Z,3.67
2023-02-06T06:08:15.907Z,3.07
2023-02-06T06:12:18.085Z,3.33
2023-02-06T06:16:20.234Z,3.43
2023-02-06T06:20:22.486Z,3.73
2023-02-06T06:24:24.832Z,3.23
2023-02-06T06:28:27.011Z,3.40
2023-02-06T06:32:29.140Z,4.00
2023-02-06T06:36:31.319Z,3.97
2023-02-06T06:40:33.468Z,3.40
2023-02-06T06:44:35.702Z,3.30
2023-02-06T06:48:38.009Z,4.30
2023-02-06T06:52:40.186Z,3.43
2023-02-06T06:56:42.880Z,4.47
2023-02-06T07:00:45.251Z,4.90
2023-02-06T07:04:47.407Z,4.17
2023-02-06T07:08:49.585Z,4.07
2023-02-06T07:12:51.728Z,3.77
2023-02-06T07:16:53.844Z,3.93
2023-02-06T07:20:56.049Z,3.90
2023-02-06T07:24:58.281Z,4.03
2023-02-06T07:29:00.401Z,4.13
2023-02-06T07:33:04.801Z,4.23
2023-02-06T07:37:06.995Z,4.53
2023-02-06T07:41:10.762Z,4.73
2023-02-06T07:45:13.895Z,4.53
2023-02-06T07:49:16.552Z,4.27
2023-02-06T07:53:18.657Z,4.57
2023-02-06T07:57:20.787Z,4.30
2023-02-06T08:01:23.651Z,4.20
2023-02-06T08:05:26.000Z,4.80
2023-02-06T08:09:28.250Z,4.93
2023-02-06T08:13:30.448Z,4.30
2023-02-06T08:17:32.621Z,4.53
2023-02-06T08:21:34.808Z,4.87
2023-02-06T08:25:37.377Z,5.20
2023-02-06T08:29:39.704Z,5.00
2023-02-06T08:33:42.164Z,5.20
2023-02-06T08:37:44.337Z,5.10
2023-02-06T08:41:46.778Z,4.90
2023-02-06T08:45:49.631Z,5.40
2023-02-06T08:49:51.860Z,4.93
2023-02-06T08:53:56.564Z,5.00
2023-02-06T08:57:58.693Z,5.17
2023-02-06T09:02:00.871Z,6.17
2023-02-06T09:06:09.692Z,6.10
2023-02-06T09:10:26.760Z,6.00
2023-02-06T09:14:30.318Z,5.63
2023-02-06T09:18:32.541Z,6.53
2023-02-06T09:22:34.660Z,6.10
2023-02-06T09:26:58.021Z,6.37
2023-02-06T09:31:01.587Z,5.53
2023-02-06T09:35:03.840Z,6.37
2023-02-06T09:39:07.060Z,6.93
2023-02-06T09:43:11.688Z,6.40
2023-02-06T09:47:29.263Z,6.60
2023-02-06T09:51:31.408Z,6.07
2023-02-06T09:55:33.712Z,6.43
2023-02-06T09:59:37.894Z,6.97
2023-02-06T10:03:39.995Z,6.77
2023-02-06T10:08:00.942Z,7.33
2023-02-06T10:12:06.241Z,5.97
2023-02-06T10:16:14.987Z,6.87
2023-02-06T10:20:19.745Z,6.90
2023-02-06T10:24:31.161Z,6.97
2023-02-06T10:28:33.789Z,6.67
2023-02-06T10:32:42.507Z,6.93
2023-02-06T10:37:03.620Z,6.17
2023-02-06T10:41:24.410Z,6.67
2023-02-06T10:45:36.043Z,6.70
2023-02-06T10:49:41.579Z,6.60
2023-02-06T10:53:48.336Z,6.67
2023-02-06T10:57:54.229Z,5.83
2023-02-06T11:02:04.237Z,7.20
2023-02-06T11:06:06.623Z,7.33
2023-02-06T11:10:12.797Z,7.30
2023-02-06T11:14:16.682Z,7.60
2023-02-06T11:18:20.312Z,7.53
2023-02-06T11:22:30.630Z,6.93
2023-02-06T11:26:33.436Z,7.33
2023-02-06T11:30:37.421Z,6.73
2023-02-06T11:34:45.080Z,7.47
2023-02-06T11:38:55.128Z,6.70
2023-02-06T11:43:17.901Z,6.87
2023-02-06T11:47:37.931Z,8.23
2023-02-06T11:51:46.362Z,6.77
2023-02-06T11:55:59.726Z,7.00
2023-02-06T12:00:19.169Z,6.43
2023-02-06T12:04:24.189Z,6.17
2023-02-06T12:08:37.044Z,5.60
2023-02-06T12:12:41.129Z,5.20
2023-02-06T12:16:44.713Z,5.63
2023-02-06T12:21:07.224Z,6.03
2023-02-06T12:25:24.430Z,5.83
2023-02-06T12:29:33.523Z,5.23
2023-02-06T12:33:37.549Z,5.37
2023-02-06T12:37:39.717Z,5.67
2023-02-06T12:41:47.902Z,5.43
2023-02-06T12:45:58.391Z,4.80
2023-02-06T12:50:00.547Z,5.47
2023-02-06T12:54:11.566Z,5.33
2023-02-06T12:58:28.856Z,4.30
2023-02-06T13:02:49.895Z,4.97
2023-02-06T13:06:54.369Z,4.83
2023-02-06T13:11:07.518Z,4.97
2023-02-06T13:15:21.579Z,5.33
2023-02-06T13:19:42.292Z,5.00
2023-02-06T13:24:10.833Z,5.67
2023-02-06T13:28:22.246Z,4.57
2023-02-06T13:32:24.560Z,5.27
2023-02-06T13:36:46.981Z,4.67
2023-02-06T13:40:49.565Z,5.60
2023-02-06T13:44:52.172Z,4.90
2023-02-06T13:49:00.586Z,5.40
2023-02-06T13:53:11.296Z,4.90
2023-02-06T13:57:32.184Z,5.20
2023-02-06T14:01:34.525Z,5.27
2023-02-06T14:05:56.951Z,5.27
2023-02-06T14:09:59.114Z,4.90
2023-02-06T14:14:01.218Z,4.87
2023-02-06T14:18:03.383Z,4.70
2023-02-06T14:22:08.709Z,4.63
2023-02-06T14:26:19.300Z,4.30
2023-02-06T14:30:32.758Z,4.37
2023-02-06T14:34:34.916Z,5.60
2023-02-06T14:38:40.096Z,5.43
2023-02-06T14:42:43.814Z,4.77
2023-02-06T14:46:46.092Z,4.70
2023-02-06T14:50:51.368Z,5.07
2023-02-06T14:54:53.843Z,5.33
2023-02-06T14:58:56.058Z,5.30
2023-02-06T15:03:15.709Z,4.63
2023-02-06T15:07:25.851Z,5.33
2023-02-06T15:11:29.301Z,6.10
2023-02-06T15:15:33.619Z,10.17
2023-02-06T15:19:35.802Z,6.27
2023-02-06T15:23:37.937Z,5.80
2023-02-06T15:27:40.305Z,6.00
2023-02-06T15:31:47.136Z,6.13
2023-02-06T15:35:50.828Z,5.90
2023-02-06T15:39:53.710Z,5.40
2023-02-06T15:43:59.253Z,4.77
2023-02-06T15:48:03.189Z,6.67
2023-02-06T15:52:05.779Z,6.23
2023-02-06T15:56:29.118Z,6.20
2023-02-06T16:00:36.581Z,5.43
2023-02-06T16:04:40.177Z,5.50
2023-02-06T16:08:43.968Z,5.27
2023-02-06T16:12:46.306Z,5.40
2023-02-06T16:16:59.237Z,4.67
2023-02-06T16:21:16.640Z,5.23
2023-02-06T16:25:22.961Z,5.93
2023-02-06T16:29:30.297Z,5.77
2023-02-06T16:33:34.870Z,5.90
2023-02-06T16:37:37.046Z,4.60
2023-02-06T16:41:40.006Z,5.13
2023-02-06T16:45:42.160Z,5.10
2023-02-06T16:49:44.673Z,4.87
2023-02-06T16:53:47.611Z,7.53
2023-02-06T16:57:51.792Z,6.07
2023-02-06T17:01:53.991Z,5.43
2023-02-06T17:05:56.238Z,5.13
2023-02-06T17:09:59.228Z,6.33
2023-02-06T17:14:01.450Z,5.20
2023-02-06T17:18:03.671Z,6.17
2023-02-06T17:22:06.287Z,5.23
2023-02-06T17:26:15.836Z,6.00
2023-02-06T17:30:22.448Z,5.80
2023-02-06T17:34:24.722Z,5.50
2023-02-06T17:38:26.980Z,5.93
2023-02-06T17:42:29.136Z,6.13
2023-02-06T17:46:31.508Z,7.13
2023-02-06T17:50:34.038Z,6.10
2023-02-06T17:54:36.336Z,5.57
2023-02-06T17:58:38.796Z,6.10
2023-02-06T18:02:41.288Z,6.70
2023-02-06T18:06:43.816Z,5.33
2023-02-06T18:10:46.025Z,6.43
2023-02-06T18:14:48.493Z,6.63
2023-02-06T18:18:50.811Z,6.00
2023-02-06T18:22:53.040Z,6.30
2023-02-06T18:26:55.145Z,5.87
2023-02-06T18:30:57.409Z,6.20
2023-02-06T18:35:00.098Z,6.20
2023-02-06T18:39:02.395Z,6.63
2023-02-06T18:43:04.984Z,6.73
2023-02-06T18:47:07.151Z,6.90
2023-02-06T18:51:09.308Z,5.67
2023-02-06T18:55:11.501Z,6.67
2023-02-06T18:59:13.661Z,7.10
2023-02-06T19:03:15.840Z,6.50
2023-02-06T19:07:18.025Z,7.50
2023-02-06T19:11:20.259Z,7.67
2023-02-06T19:15:22.492Z,7.30
2023-02-06T19:19:24.790Z,7.60
2023-02-06T19:23:26.936Z,7.10
2023-02-06T19:27:29.129Z,7.40
2023-02-06T19:31:31.325Z,8.53
2023-02-06T19:35:33.480Z,7.57
2023-02-06T19:39:35.733Z,7.43
2023-02-06T19:43:38.240Z,7.67
2023-02-06T19:47:40.393Z,7.57
2023-02-06T19:51:43.131Z,9.17
2023-02-06T19:55:48.444Z,7.27
2023-02-06T19:59:50.634Z,8.57
2023-02-06T20:03:53.062Z,8.73
2023-02-06T20:07:55.444Z,8.30
2023-02-06T20:11:57.812Z,8.57
2023-02-06T20:15:59.986Z,8.57
2023-02-06T20:20:02.191Z,8.00
2023-02-06T20:24:06.061Z,8.93
2023-02-06T20:28:08.391Z,9.03
2023-02-06T20:32:10.882Z,8.97
2023-02-06T20:36:20.598Z,10.07
2023-02-06T20:40:23.039Z,9.00
2023-02-06T20:44:25.246Z,9.27
2023-02-06T20:48:27.533Z,7.90
2023-02-06T20:52:29.712Z,8.20
2023-02-06T20:56:31.887Z,8.97
2023-02-06T21:00:34.825Z,10.00
2023-02-06T21:04:37.109Z,9.57
2023-02-06T21:08:39.365Z,10.30
2023-02-06T21:12:41.622Z,9.70
2023-02-06T21:16:43.733Z,8.53
2023-02-06T21:20:46.033Z,7.97
2023-02-06T21:24:48.215Z,9.53
2023-02-06T21:28:50.555Z,8.50
2023-02-06T21:32:52.835Z,10.43
2023-02-06T21:36:55.299Z,8.93
2023-02-06T21:41:03.478Z,12.60
2023-02-06T21:45:05.809Z,10.40
2023-02-06T21:49:07.980Z,11.57
2023-02-06T21:53:10.239Z,10.97
2023-02-06T21:57:12.430Z,10.70
2023-02-06T22:01:16.297Z,10.23
2023-02-06T22:05:18.599Z,11.03
2023-02-06T22:09:20.804Z,10.53
2023-02-06T22:13:23.000Z,10.60
2023-02-06T22:17:25.131Z,10.67
2023-02-06T22:21:28.276Z,11.33
2023-02-06T22:25:30.496Z,10.60
2023-02-06T22:29:32.790Z,11.20
2023-02-06T22:33:35.188Z,10.53
2023-02-06T22:37:37.407Z,10.93
2023-02-06T22:41:41.325Z,10.23
2023-02-06T22:45:43.476Z,9.83
2023-02-06T22:49:45.652Z,10.63
2023-02-06T22:53:47.874Z,9.70
2023-02-06T22:57:50.013Z,9.83
2023-02-06T23:01:56.091Z,9.90
2023-02-06T23:06:01.514Z,9.60
2023-02-06T23:10:03.786Z,9.57
2023-02-06T23:14:06.292Z,9.73
2023-02-06T23:18:08.459Z,10.77
2023-02-06T23:22:10.767Z,9.07
2023-02-06T23:26:13.460Z,8.67
2023-02-06T23:30:15.679Z,8.77
2023-02-06T23:34:18.618Z,8.73
2023-02-06T23:38:20.849Z,8.60
2023-02-06T23:42:23.009Z,8.37
2023-02-06T23:46:25.261Z,8.57
2023-02-06T23:50:27.491Z,7.97
2023-02-06T23:54:29.780Z,9.00
2023-02-06T23:58:31.963Z,8.73
